createdAt,value
2023-04-28T00:00:07.874Z,10.90
2023-04-28T00:02:34.776Z,10.80
2023-04-28T00:05:01.777Z,10.90
2023-04-28T00:07:28.658Z,10.80
2023-04-28T00:09:57.068Z,10.90
2023-04-28T00:12:24.073Z,10.90
2023-04-28T00:14:51.161Z,10.90
2023-04-28T00:17:17.984Z,10.90
2023-04-28T00:19:45.263Z,10.90
2023-04-28T00:22:13.131Z,10.90
2023-04-28T00:24:41.847Z,10.90
2023-04-28T00:27:08.696Z,10.90
2023-04-28T00:29:35.476Z,11.00
2023-04-28T00:32:02.565Z,11.00
2023-04-28T00:34:33.262Z,10.90
2023-04-28T00:37:00.156Z,11.00
2023-04-28T00:39:27.833Z,11.00
2023-04-28T00:41:54.596Z,10.90
2023-04-28T00:44:21.466Z,10.80
2023-04-28T00:46:48.410Z,10.90
2023-04-28T00:49:18.124Z,10.90
2023-04-28T00:51:44.887Z,10.90
2023-04-28T00:54:14.954Z,10.90
2023-04-28T00:56:42.984Z,10.90
2023-04-28T00:59:10.522Z,10.90
2023-04-28T01:01:37.758Z,10.90
2023-04-28T01:04:04.995Z,10.90
2023-04-28T01:06:33.172Z,10.80
2023-04-28T01:08:59.928Z,10.80
2023-04-28T01:11:26.802Z,10.70
2023-04-28T01:13:53.560Z,10.70
2023-04-28T01:16:20.659Z,10.70
2023-04-28T01:18:48.326Z,10.70
2023-04-28T01:21:15.295Z,10.70
2023-04-28T01:23:45.986Z,10.80
2023-04-28T01:26:12.779Z,10.80
2023-04-28T01:28:39.541Z,10.80
2023-04-28T01:31:06.360Z,10.80
2023-04-28T01:33:33.198Z,10.80
2023-04-28T01:36:00.020Z,10.80
2023-04-28T01:38:26.994Z,10.90
2023-04-28T01:40:55.564Z,10.80
2023-04-28T01:43:22.339Z,10.80
2023-04-28T01:45:49.071Z,10.80
2023-04-28T01:48:15.912Z,10.80
2023-04-28T01:50:49.550Z,10.90
2023-04-28T01:53:20.513Z,10.80
2023-04-28T01:55:47.535Z,10.80
2023-04-28T01:58:14.569Z,10.70
2023-04-28T02:00:41.346Z,10.80
2023-04-28T02:03:08.220Z,10.90
2023-04-28T02:05:35.110Z,10.90
2023-04-28T02:08:01.815Z,10.90
2023-04-28T02:10:28.812Z,10.90
2023-04-28T02:12:55.596Z,10.80
2023-04-28T02:15:22.479Z,10.60
2023-04-28T02:17:49.357Z,10.60
2023-04-28T02:20:16.515Z,10.60
2023-04-28T02:22:43.256Z,10.40
2023-04-28T02:25:10.232Z,10.30
2023-04-28T02:27:37.082Z,10.30
2023-04-28T02:30:05.481Z,10.50
2023-04-28T02:32:32.739Z,10.60
2023-04-28T02:34:59.524Z,10.70
2023-04-28T02:37:26.378Z,10.80
2023-04-28T02:39:53.499Z,11.00
2023-04-28T02:42:20.340Z,11.10
2023-04-28T02:44:47.065Z,11.00
2023-04-28T02:47:13.746Z,11.00
2023-04-28T02:49:40.580Z,11.00
2023-04-28T02:52:07.328Z,11.00
2023-04-28T02:54:36.533Z,11.00
2023-04-28T02:57:04.746Z,11.10
2023-04-28T02:59:31.529Z,11.20
2023-04-28T03:01:58.289Z,11.20
2023-04-28T03:04:25.388Z,11.10
2023-04-28T03:06:53.360Z,11.10
2023-04-28T03:09:20.160Z,11.00
2023-04-28T03:11:46.973Z,10.90
2023-04-28T03:14:13.768Z,11.00
2023-04-28T03:16:40.686Z,11.10
2023-04-28T03:19:07.414Z,11.10
2023-04-28T03:21:34.167Z,11.10
2023-04-28T03:24:01.983Z,11.10
2023-04-28T03:26:29.741Z,11.20
2023-04-28T03:28:56.998Z,11.30
2023-04-28T03:31:24.246Z,11.30
2023-04-28T03:33:51.186Z,11.20
2023-04-28T03:36:18.032Z,11.00
2023-04-28T03:38:44.733Z,10.90
2023-04-28T03:41:11.450Z,11.00
2023-04-28T03:43:38.144Z,11.10
2023-04-28T03:46:05.124Z,10.90
2023-04-28T03:48:31.967Z,10.70
2023-04-28T03:50:58.716Z,10.50
2023-04-28T03:53:25.626Z,10.50
2023-04-28T03:55:52.411Z,10.50
2023-04-28T03:58:19.133Z,10.60
2023-04-28T04:00:46.468Z,10.60
2023-04-28T04:03:13.409Z,10.60
2023-04-28T04:05:41.489Z,10.60
2023-04-28T04:08:08.248Z,10.70
2023-04-28T04:10:35.023Z,10.60
2023-04-28T04:13:01.813Z,10.60
2023-04-28T04:15:28.729Z,10.50
2023-04-28T04:17:55.587Z,10.60
2023-04-28T04:20:22.543Z,10.50
2023-04-28T04:22:49.289Z,10.50
2023-04-28T04:25:16.973Z,10.60
2023-04-28T04:27:43.822Z,10.70
2023-04-28T04:30:10.943Z,10.90
2023-04-28T04:32:37.750Z,11.00
2023-04-28T04:35:04.716Z,10.90
2023-04-28T04:37:31.483Z,10.90
2023-04-28T04:39:58.219Z,10.90
2023-04-28T04:42:26.018Z,10.80
2023-04-28T04:44:52.981Z,10.90
2023-04-28T04:47:19.850Z,10.90
2023-04-28T04:49:46.714Z,10.80
2023-04-28T04:52:13.504Z,10.90
2023-04-28T04:54:40.427Z,10.70
2023-04-28T04:57:07.758Z,10.80
2023-04-28T04:59:34.574Z,10.80
2023-04-28T05:02:01.382Z,10.90
2023-04-28T05:04:28.412Z,10.90
2023-04-28T05:06:55.513Z,10.90
2023-04-28T05:09:23.141Z,10.90
2023-04-28T05:11:49.932Z,10.90
2023-04-28T05:14:17.368Z,11.00
2023-04-28T05:16:44.794Z,11.00
2023-04-28T05:19:11.598Z,11.00
2023-04-28T05:21:38.451Z,11.10
2023-04-28T05:24:05.621Z,11.30
2023-04-28T05:26:33.566Z,11.20
2023-04-28T05:29:00.355Z,11.10
2023-04-28T05:31:27.145Z,11.10
2023-04-28T05:33:53.916Z,11.00
2023-04-28T05:36:20.820Z,11.10
2023-04-28T05:38:47.711Z,11.10
2023-04-28T05:41:14.433Z,11.00
2023-04-28T05:43:41.429Z,11.00
2023-04-28T05:46:18.182Z,11.00
2023-04-28T05:48:54.924Z,10.90
2023-04-28T05:51:22.491Z,11.00
2023-04-28T05:53:49.251Z,11.00
2023-04-28T05:56:17.117Z,11.10
2023-04-28T05:58:48.012Z,11.10
2023-04-28T06:01:14.879Z,11.10
2023-04-28T06:03:42.221Z,11.30
2023-04-28T06:06:10.338Z,11.40
2023-04-28T06:08:38.195Z,11.50
2023-04-28T06:11:05.380Z,11.60
2023-04-28T06:13:32.233Z,11.70
2023-04-28T06:15:59.334Z,11.80
2023-04-28T06:18:27.087Z,11.90
2023-04-28T06:20:53.902Z,12.00
2023-04-28T06:23:20.612Z,12.00
2023-04-28T06:25:47.963Z,12.00
2023-04-28T06:28:15.075Z,12.20
2023-04-28T06:30:42.063Z,12.30
2023-04-28T06:33:09.326Z,12.30
2023-04-28T06:35:38.425Z,12.40
2023-04-28T06:38:06.834Z,12.50
2023-04-28T06:40:33.583Z,12.50
2023-04-28T06:43:00.283Z,12.50
2023-04-28T06:45:27.244Z,12.60
2023-04-28T06:47:55.857Z,12.60
2023-04-28T06:50:24.218Z,12.60
2023-04-28T06:52:51.046Z,12.70
2023-04-28T06:55:17.987Z,12.80
2023-04-28T06:57:45.484Z,13.00
2023-04-28T07:00:12.872Z,13.10
2023-04-28T07:02:39.836Z,13.20
2023-04-28T07:05:07.324Z,13.30
2023-04-28T07:07:34.136Z,13.40
2023-04-28T07:10:01.265Z,13.40
2023-04-28T07:12:28.110Z,13.50
2023-04-28T07:14:55.905Z,13.40
2023-04-28T07:17:22.720Z,13.50
2023-04-28T07:19:50.963Z,13.40
2023-04-28T07:22:17.944Z,13.40
2023-04-28T07:24:45.004Z,13.30
2023-04-28T07:27:11.761Z,13.30
2023-04-28T07:29:38.486Z,13.30
2023-04-28T07:32:07.391Z,13.10
2023-04-28T07:34:35.861Z,12.90
2023-04-28T07:37:03.699Z,12.80
2023-04-28T07:39:35.039Z,12.80
2023-04-28T07:42:03.212Z,12.80
2023-04-28T07:44:30.590Z,12.80
2023-04-28T07:46:57.479Z,12.80
2023-04-28T07:49:24.293Z,12.90
2023-04-28T07:51:53.655Z,12.90
2023-04-28T07:54:20.679Z,12.90
2023-04-28T07:56:47.529Z,12.80
2023-04-28T07:59:14.646Z,12.80
2023-04-28T08:01:43.046Z,12.80
2023-04-28T08:04:11.372Z,12.80
2023-04-28T08:06:38.978Z,12.90
2023-04-28T08:09:06.442Z,12.90
2023-04-28T08:11:33.574Z,12.80
2023-04-28T08:14:03.038Z,12.80
2023-04-28T08:16:31.403Z,12.90
2023-04-28T08:18:59.656Z,12.90
2023-04-28T08:21:27.130Z,12.90
2023-04-28T08:23:53.917Z,12.80
2023-04-28T08:26:20.955Z,12.90
2023-04-28T08:28:47.744Z,13.00
2023-04-28T08:31:14.644Z,13.10
2023-04-28T08:33:44.469Z,13.20
2023-04-28T08:36:15.180Z,13.40
2023-04-28T08:38:42.990Z,13.50
2023-04-28T08:41:09.967Z,13.60
2023-04-28T08:43:37.312Z,13.70
2023-04-28T08:46:07.502Z,13.80
2023-04-28T08:48:47.428Z,13.70
2023-04-28T08:51:26.076Z,13.70
2023-04-28T08:56:31.871Z,13.90
2023-04-28T08:59:04.354Z,13.90
2023-04-28T09:01:34.752Z,14.00
2023-04-28T09:04:03.237Z,14.10
2023-04-28T09:06:35.850Z,14.00
2023-04-28T09:09:25.401Z,14.00
2023-04-28T09:11:55.741Z,14.00
2023-04-28T09:14:24.082Z,14.00
2023-04-28T09:16:51.813Z,14.00
2023-04-28T09:19:20.379Z,14.10
2023-04-28T09:21:55.879Z,14.10
2023-04-28T09:24:40.518Z,14.20
2023-04-28T09:27:10.847Z,14.10
2023-04-28T09:29:38.613Z,14.10
2023-04-28T09:32:17.854Z,14.10
2023-04-28T09:34:45.733Z,13.90
2023-04-28T09:37:27.388Z,13.80
2023-04-28T09:39:55.463Z,13.60
2023-04-28T09:42:37.290Z,13.50
2023-04-28T09:45:14.294Z,13.40
2023-04-28T09:47:42.955Z,13.50
2023-04-28T09:50:15.218Z,13.50
2023-04-28T09:52:44.283Z,13.50
2023-04-28T09:55:12.321Z,13.40
2023-04-28T09:57:40.633Z,13.40
2023-04-28T10:00:09.631Z,13.40
2023-04-28T10:05:09.682Z,13.40
2023-04-28T10:07:37.535Z,13.40
2023-04-28T10:10:05.404Z,13.40
2023-04-28T10:12:33.204Z,13.40
2023-04-28T10:15:00.377Z,13.50
2023-04-28T10:17:29.726Z,13.50
2023-04-28T10:19:57.246Z,13.40
2023-04-28T10:22:50.995Z,13.40
2023-04-28T10:25:36.768Z,13.50
2023-04-28T10:28:08.511Z,13.60
2023-04-28T10:30:36.025Z,13.60
2023-04-28T10:33:12.024Z,13.70
2023-04-28T10:35:43.632Z,13.70
2023-04-28T10:38:23.347Z,13.70
2023-04-28T10:40:51.518Z,13.60
2023-04-28T10:43:33.111Z,13.70
2023-04-28T10:46:01.298Z,13.70
2023-04-28T10:48:34.631Z,13.70
2023-04-28T10:51:04.565Z,13.60
2023-04-28T10:53:46.789Z,13.70
2023-04-28T10:56:27.229Z,13.60
2023-04-28T10:58:58.089Z,13.60
2023-04-28T11:01:30.770Z,13.50
2023-04-28T11:04:04.147Z,13.50
2023-04-28T11:06:39.786Z,13.50
2023-04-28T11:09:15.626Z,13.40
2023-04-28T11:12:00.565Z,13.50
2023-04-28T11:14:32.050Z,13.50
2023-04-28T11:17:01.506Z,13.60
2023-04-28T11:19:30.567Z,13.70
2023-04-28T11:21:59.298Z,13.60
2023-04-28T11:24:28.913Z,13.70
2023-04-28T11:26:56.496Z,13.70
2023-04-28T11:29:38.900Z,13.80
2023-04-28T11:32:10.265Z,13.90
2023-04-28T11:34:37.823Z,14.10
2023-04-28T11:37:07.146Z,14.40
2023-04-28T11:39:35.977Z,14.60
2023-04-28T11:42:10.502Z,14.80
2023-04-28T11:44:38.054Z,14.90
2023-04-28T11:47:06.410Z,14.80
2023-04-28T11:49:45.780Z,14.90
2023-04-28T11:52:13.741Z,15.00
2023-04-28T11:54:43.458Z,15.10
2023-04-28T11:57:21.825Z,15.30
2023-04-28T11:59:49.742Z,15.30
2023-04-28T12:02:24.339Z,15.40
2023-04-28T12:04:52.113Z,15.40
2023-04-28T12:07:20.075Z,15.60
2023-04-28T12:10:07.142Z,15.70
2023-04-28T12:15:06.231Z,15.90
2023-04-28T12:17:41.478Z,15.90
2023-04-28T12:20:10.943Z,15.90
2023-04-28T12:22:52.197Z,16.10
2023-04-28T12:25:19.671Z,16.20
2023-04-28T12:28:03.643Z,16.30
2023-04-28T12:30:34.986Z,16.40
2023-04-28T12:33:02.104Z,16.50
2023-04-28T12:35:29.555Z,16.50
2023-04-28T12:37:58.521Z,16.40
2023-04-28T12:40:26.184Z,16.30
2023-04-28T12:42:54.138Z,16.20
2023-04-28T12:45:21.080Z,16.00
2023-04-28T12:47:48.226Z,15.70
2023-04-28T12:50:15.281Z,15.60
2023-04-28T12:52:42.002Z,15.40
2023-04-28T12:55:09.288Z,15.40
2023-04-28T12:57:38.999Z,15.30
2023-04-28T13:00:08.085Z,15.20
2023-04-28T13:02:35.448Z,15.20
2023-04-28T13:05:03.069Z,15.20
2023-04-28T13:07:30.559Z,15.20
2023-04-28T13:09:58.281Z,15.30
2023-04-28T13:12:25.438Z,15.50
2023-04-28T13:14:52.311Z,15.70
2023-04-28T13:17:19.124Z,15.80
2023-04-28T13:19:46.399Z,15.90
2023-04-28T13:22:13.450Z,15.90
2023-04-28T13:24:40.137Z,15.90
2023-04-28T13:27:09.909Z,16.10
2023-04-28T13:29:37.377Z,16.10
2023-04-28T13:32:05.753Z,16.00
2023-04-28T13:34:33.265Z,16.00
2023-04-28T13:37:00.102Z,16.00
2023-04-28T13:39:26.845Z,16.10
2023-04-28T13:41:53.559Z,16.10
2023-04-28T13:44:21.188Z,16.10
2023-04-28T13:46:48.517Z,16.20
2023-04-28T13:49:15.819Z,16.20
2023-04-28T13:51:42.777Z,16.20
2023-04-28T13:54:11.266Z,16.30
2023-04-28T13:56:38.402Z,16.40
2023-04-28T13:59:05.362Z,16.40
2023-04-28T14:01:32.261Z,16.40
2023-04-28T14:03:59.317Z,16.40
2023-04-28T14:06:27.445Z,16.50
2023-04-28T14:08:54.297Z,16.50
2023-04-28T14:11:21.078Z,16.60
2023-04-28T14:13:47.821Z,16.60
2023-04-28T14:16:14.697Z,16.60
2023-04-28T14:18:41.719Z,16.50
2023-04-28T14:21:08.840Z,16.40
2023-04-28T14:23:35.745Z,16.40
2023-04-28T14:26:02.712Z,16.30
2023-04-28T14:28:29.630Z,16.20
2023-04-28T14:30:56.664Z,16.30
2023-04-28T14:33:23.780Z,16.30
2023-04-28T14:35:50.577Z,16.40
2023-04-28T14:38:17.372Z,16.40
2023-04-28T14:40:44.179Z,16.30
2023-04-28T14:43:10.913Z,16.30
2023-04-28T14:45:38.338Z,16.30
2023-04-28T14:48:07.057Z,16.30
2023-04-28T14:50:34.024Z,16.20
2023-04-28T14:53:05.480Z,16.30
2023-04-28T14:55:33.146Z,16.30
2023-04-28T14:57:59.975Z,16.30
2023-04-28T15:00:26.866Z,16.10
2023-04-28T15:02:53.709Z,16.10
2023-04-28T15:05:20.620Z,16.00
2023-04-28T15:07:47.670Z,15.90
2023-04-28T15:10:14.595Z,15.90
2023-04-28T15:12:42.473Z,15.80
2023-04-28T15:15:09.884Z,15.50
2023-04-28T15:17:36.861Z,15.40
2023-04-28T15:20:04.869Z,15.30
2023-04-28T15:22:31.595Z,15.20
2023-04-28T15:24:58.431Z,15.20
2023-04-28T15:27:25.398Z,15.20
2023-04-28T15:29:52.140Z,15.20
2023-04-28T15:32:19.159Z,15.10
2023-04-28T15:34:46.161Z,15.20
2023-04-28T15:37:38.783Z,15.10
2023-04-28T15:40:06.205Z,15.10
2023-04-28T15:42:33.098Z,15.00
2023-04-28T15:44:59.975Z,14.80
2023-04-28T15:47:26.714Z,14.80
2023-04-28T15:49:53.487Z,14.80
2023-04-28T15:52:20.300Z,14.80
2023-04-28T15:54:47.178Z,14.80
2023-04-28T15:57:14.050Z,14.90
2023-04-28T15:59:41.152Z,14.90
2023-04-28T16:02:08.213Z,14.80
2023-04-28T16:04:35.193Z,14.80
2023-04-28T16:07:02.685Z,14.70
2023-04-28T16:09:29.947Z,14.70
2023-04-28T16:11:59.394Z,14.70
2023-04-28T16:14:27.116Z,14.70
2023-04-28T16:16:54.058Z,14.60
2023-04-28T16:19:21.730Z,14.50
2023-04-28T16:21:48.627Z,14.40
2023-04-28T16:24:15.333Z,14.40
2023-04-28T16:26:42.258Z,14.40
2023-04-28T16:29:09.080Z,14.40
2023-04-28T16:31:36.361Z,14.40
2023-04-28T16:34:03.938Z,14.30
2023-04-28T16:36:33.060Z,14.20
2023-04-28T16:38:59.948Z,14.20
2023-04-28T16:41:26.682Z,14.20
2023-04-28T16:43:53.453Z,14.30
2023-04-28T16:46:20.550Z,14.20
2023-04-28T16:48:47.317Z,14.10
2023-04-28T16:51:14.151Z,14.20
2023-04-28T16:53:41.330Z,14.20
2023-04-28T16:56:10.650Z,14.30
2023-04-28T16:58:37.930Z,14.20
2023-04-28T17:01:04.838Z,14.20
2023-04-28T17:03:31.847Z,14.10
2023-04-28T17:05:59.664Z,14.10
2023-04-28T17:08:26.830Z,14.00
2023-04-28T17:10:53.702Z,13.90
2023-04-28T17:13:20.422Z,13.90
2023-04-28T17:15:54.472Z,13.90
2023-04-28T17:18:21.626Z,13.90
2023-04-28T17:20:48.370Z,13.90
2023-04-28T17:23:15.803Z,13.90
2023-04-28T17:25:42.933Z,13.80
2023-04-28T17:28:09.964Z,13.90
2023-04-28T17:30:37.669Z,13.90
2023-04-28T17:33:04.744Z,13.90
2023-04-28T17:35:31.693Z,13.90
2023-04-28T17:37:58.483Z,13.90
2023-04-28T17:40:25.356Z,13.90
2023-04-28T17:42:53.999Z,13.80
2023-04-28T17:45:20.972Z,13.80
2023-04-28T17:47:47.844Z,13.80
2023-04-28T17:50:14.636Z,13.70
2023-04-28T17:52:43.875Z,13.60
2023-04-28T17:55:10.935Z,13.50
2023-04-28T17:57:37.968Z,13.50
2023-04-28T18:00:05.295Z,13.40
2023-04-28T18:02:32.348Z,13.50
2023-04-28T18:04:59.300Z,13.40
2023-04-28T18:07:27.375Z,13.20
2023-04-28T18:09:57.026Z,13.30
2023-04-28T18:12:24.588Z,13.30
2023-04-28T18:14:51.654Z,13.30
2023-04-28T18:17:18.680Z,13.40
2023-04-28T18:19:46.966Z,13.20
2023-04-28T18:22:13.748Z,13.10
2023-04-28T18:24:40.486Z,12.90
2023-04-28T18:27:07.271Z,12.80
2023-04-28T18:29:34.014Z,12.70
2023-04-28T18:32:00.998Z,12.70
2023-04-28T18:34:28.273Z,12.60
2023-04-28T18:36:54.982Z,12.50
2023-04-28T18:39:22.872Z,12.60
2023-04-28T18:41:49.646Z,12.60
2023-04-28T18:44:16.427Z,12.50
2023-04-28T18:46:43.417Z,12.50
2023-04-28T18:49:10.265Z,12.50
2023-04-28T18:51:38.613Z,12.60
2023-04-28T18:54:05.786Z,12.60
2023-04-28T18:56:32.538Z,12.60
2023-04-28T18:58:59.289Z,12.70
2023-04-28T19:01:27.377Z,12.80
2023-04-28T19:03:54.795Z,12.80
2023-04-28T19:06:22.068Z,12.80
2023-04-28T19:08:48.786Z,12.80
2023-04-28T19:11:20.775Z,12.70
2023-04-28T19:13:47.750Z,12.70
2023-04-28T19:16:14.772Z,12.60
2023-04-28T19:18:42.158Z,12.60
2023-04-28T19:21:12.076Z,12.70
2023-04-28T19:23:41.901Z,12.70
2023-04-28T19:26:09.513Z,12.70
2023-04-28T19:28:36.676Z,12.60
2023-04-28T19:31:04.414Z,12.60
2023-04-28T19:33:31.194Z,12.50
2023-04-28T19:35:59.938Z,12.50
2023-04-28T19:38:28.462Z,12.50
2023-04-28T19:41:01.542Z,12.50
2023-04-28T19:43:28.281Z,12.40
2023-04-28T19:45:55.403Z,12.40
2023-04-28T19:48:23.200Z,12.50
2023-04-28T19:50:49.936Z,12.50
2023-04-28T19:53:17.683Z,12.50
2023-04-28T19:55:44.407Z,12.50
2023-04-28T19:58:11.275Z,12.40
2023-04-28T20:00:38.215Z,12.50
2023-04-28T20:03:05.123Z,12.50
2023-04-28T20:05:32.021Z,12.50
2023-04-28T20:07:58.792Z,12.40
2023-04-28T20:10:25.625Z,12.30
2023-04-28T20:12:54.001Z,12.30
2023-04-28T20:15:20.870Z,12.30
2023-04-28T20:17:47.636Z,12.30
2023-04-28T20:20:14.546Z,12.30
2023-04-28T20:22:41.442Z,12.30
2023-04-28T20:25:10.482Z,12.30
2023-04-28T20:27:37.486Z,12.20
2023-04-28T20:30:05.000Z,12.20
2023-04-28T20:32:32.020Z,12.20
2023-04-28T20:34:59.152Z,12.10
2023-04-28T20:37:26.560Z,12.10
2023-04-28T20:39:53.735Z,12.10
2023-04-28T20:42:20.497Z,12.10
2023-04-28T20:44:47.204Z,12.10
2023-04-28T20:47:14.063Z,12.10
2023-04-28T20:49:41.969Z,12.00
2023-04-28T20:52:09.155Z,12.00
2023-04-28T20:54:36.501Z,11.90
2023-04-28T20:57:04.778Z,12.00
2023-04-28T20:59:33.033Z,12.00
2023-04-28T21:02:00.431Z,12.00
2023-04-28T21:04:28.333Z,12.00
2023-04-28T21:06:55.619Z,12.00
2023-04-28T21:09:25.092Z,12.00
2023-04-28T21:11:52.379Z,12.00
2023-04-28T21:14:19.228Z,11.90
2023-04-28T21:16:46.102Z,11.90
2023-04-28T21:19:13.077Z,11.90
2023-04-28T21:21:39.888Z,11.90
2023-04-28T21:24:07.953Z,11.90
2023-04-28T21:26:35.869Z,11.90
2023-04-28T21:29:02.980Z,11.80
2023-04-28T21:31:30.826Z,11.80
2023-04-28T21:33:57.793Z,11.80
2023-04-28T21:36:24.681Z,11.70
2023-04-28T21:38:51.842Z,11.70
2023-04-28T21:41:18.596Z,11.70
2023-04-28T21:43:45.413Z,11.70
2023-04-28T21:46:13.073Z,11.70
2023-04-28T21:48:40.121Z,11.80
2023-04-28T21:51:07.067Z,11.70
2023-04-28T21:53:34.047Z,11.70
2023-04-28T21:56:01.078Z,11.70
2023-04-28T21:58:27.880Z,11.70
2023-04-28T22:00:55.121Z,11.70
2023-04-28T22:03:22.258Z,11.70
2023-04-28T22:05:49.208Z,11.60
2023-04-28T22:08:16.990Z,11.70
2023-04-28T22:10:45.663Z,11.60
2023-04-28T22:13:13.044Z,11.60
2023-04-28T22:15:40.128Z,11.60
2023-04-28T22:18:08.334Z,11.70
2023-04-28T22:20:35.929Z,11.60
2023-04-28T22:23:02.732Z,11.60
2023-04-28T22:25:29.525Z,11.50
2023-04-28T22:27:56.386Z,11.50
2023-04-28T22:30:25.755Z,11.60
2023-04-28T22:32:59.115Z,11.60
2023-04-28T22:35:25.874Z,11.50
2023-04-28T22:37:52.607Z,11.50
2023-04-28T22:40:19.508Z,11.50
2023-04-28T22:42:46.459Z,11.50
2023-04-28T22:45:13.436Z,11.40
2023-04-28T22:47:41.331Z,11.40
2023-04-28T22:50:09.757Z,11.40
2023-04-28T22:52:36.854Z,11.40
2023-04-28T22:55:03.945Z,11.50
2023-04-28T22:57:30.881Z,11.50
2023-04-28T22:59:57.617Z,11.40
2023-04-28T23:02:25.043Z,11.30
2023-04-28T23:04:52.148Z,11.30
2023-04-28T23:07:18.928Z,11.40
2023-04-28T23:09:45.765Z,11.30
2023-04-28T23:12:12.530Z,11.30
2023-04-28T23:14:39.371Z,11.30
2023-04-28T23:17:06.216Z,11.30
2023-04-28T23:19:47.375Z,11.30
2023-04-28T23:22:14.135Z,11.30
2023-04-28T23:24:41.012Z,11.30
2023-04-28T23:27:07.833Z,11.30
2023-04-28T23:29:35.901Z,11.30
2023-04-28T23:32:04.183Z,11.30
2023-04-28T23:34:34.351Z,11.30
2023-04-28T23:37:01.165Z,11.30
2023-04-28T23:39:30.070Z,11.20
2023-04-28T23:41:57.053Z,11.20
2023-04-28T23:44:23.766Z,11.20
2023-04-28T23:46:50.510Z,11.10
2023-04-28T23:49:17.293Z,11.10
2023-04-28T23:51:44.042Z,11.20
2023-04-28T23:54:11.621Z,11.20
2023-04-28T23:56:38.488Z,11.20
2023-04-28T23:59:05.456Z,11.20
